Time;durP1;ratioP1;P1;durP2;ratioP2;P2;SDS_P1;SDS_P2;PMS_P1;PMS_P2;Temp;Humidity;BMP_temperature;BMP_pressure;BME280_temperature;BME280_humidity;BME280_pressure;Samples;Min_cycle;Max_cycle;Signal;HPM_P1;HPM_P2
2021/11/27 00:01:06;;;;;;;19.10;14.60;;;;;;;0.97;82.01;97462.82;229315;1192;140096;-75
2021/11/27 00:06:12;;;;;;;20.10;12.70;;;;;;;0.97;81.98;97468.64;228849;1192;139919;-74
2021/11/27 00:11:17;;;;;;;21.00;14.60;;;;;;;1.00;82.18;97469.75;229352;1192;140426;-75
2021/11/27 00:16:34;;;;;;;21.60;13.10;;;;;;;1.00;81.72;97468.59;229691;1192;140037;-70
2021/11/27 00:21:42;;;;;;;24.00;13.50;;;;;;;0.97;82.11;97466.42;229213;1191;139377;-67
2021/11/27 00:26:46;;;;;;;21.70;12.70;;;;;;;0.99;81.90;97463.70;229389;1192;139701;-67
2021/11/27 00:31:50;;;;;;;20.00;12.20;;;;;;;1.05;81.84;97459.67;228882;1192;139913;-67
2021/11/27 00:37:18;;;;;;;24.20;14.20;;;;;;;1.06;81.97;97456.39;228953;1192;139583;-67
2021/11/27 00:42:24;;;;;;;26.00;12.60;;;;;;;1.07;81.98;97455.31;229906;1191;139194;-67
2021/11/27 00:47:29;;;;;;;20.20;11.20;;;;;;;1.08;82.04;97453.49;229697;1191;140644;-67
2021/11/27 00:52:34;;;;;;;21.70;12.90;;;;;;;1.10;81.98;97458.46;229924;1191;139544;-67
2021/11/27 00:58:12;;;;;;;24.40;14.20;;;;;;;1.12;81.81;97451.55;230072;1192;140381;-68
2021/11/27 01:03:20;;;;;;;20.00;12.90;;;;;;;1.14;82.02;97455.64;230528;1191;140237;-71
2021/11/27 01:08:45;;;;;;;20.50;12.10;;;;;;;1.17;81.97;97457.33;229725;1191;139221;-70
2021/11/27 01:13:53;;;;;;;22.00;12.40;;;;;;;1.25;82.17;97448.07;230257;1191;140927;-70
2021/11/27 01:35:42;;;;;;;27.30;12.70;;;;;;;1.10;82.42;97444.45;231747;1212;684976;-75
2021/11/27 01:40:46;;;;;;;22.00;14.50;;;;;;;1.06;81.98;97445.05;226753;1199;139429;-74
2021/11/27 01:46:33;;;;;;;;;;;;;;;;;;;;;
2021/11/27 01:52:17;;;;;;;20.70;13.90;;;;;;;1.04;82.58;97432.20;228312;1192;138489;-75
2021/11/27 01:57:57;;;;;;;18.80;10.90;;;;;;;1.03;82.20;97432.25;228208;1192;140252;-71
2021/11/27 02:03:22;;;;;;;19.00;13.30;;;;;;;1.09;82.39;97426.39;228007;1193;139785;-73
2021/11/27 02:08:26;;;;;;;21.30;13.30;;;;;;;1.12;82.39;97434.65;228068;1195;138440;-71
2021/11/27 02:13:30;;;;;;;21.10;15.20;;;;;;;1.10;82.44;97436.02;229222;1194;138669;-70
2021/11/27 02:18:37;;;;;;;17.30;11.60;;;;;;;1.09;82.30;97429.65;228652;1192;138183;-71
2021/11/27 02:24:23;;;;;;;21.30;12.30;;;;;;;1.15;82.20;97424.28;228064;1193;138590;-71
2021/11/27 02:29:32;;;;;;;17.80;11.00;;;;;;;1.19;82.40;97420.63;228934;1193;140653;-71
2021/11/27 02:34:39;;;;;;;18.50;13.50;;;;;;;1.19;82.19;97415.66;228808;1192;220105;-69
2021/11/27 02:39:45;;;;;;;21.60;11.70;;;;;;;1.16;82.10;97412.33;230626;1192;140055;-69
2021/11/27 02:44:48;;;;;;;16.10;10.50;;;;;;;1.19;81.86;97410.93;230488;1192;140033;-70
2021/11/27 02:49:52;;;;;;;22.00;13.10;;;;;;;1.22;82.01;97409.82;229521;1193;138610;-70
2021/11/27 02:57:31;;;;;;;19.00;10.30;;;;;;;1.23;81.53;97416.83;232099;1211;664632;-71
2021/11/27 03:02:35;;;;;;;18.90;12.50;;;;;;;1.22;81.86;97419.95;229218;1198;139523;-66
2021/11/27 03:07:37;;;;;;;15.80;9.70;;;;;;;1.23;81.85;97420.86;228557;1194;139621;-69
2021/11/27 03:17:28;;;;;;;18.50;10.10;;;;;;;1.16;81.92;97417.98;232117;1211;683579;-68
2021/11/27 03:22:32;;;;;;;17.50;11.20;;;;;;;1.17;81.95;97414.45;227392;1198;138913;-68
2021/11/27 03:27:35;;;;;;;19.80;10.10;;;;;;;1.16;81.90;97423.23;227419;1198;139407;-72
2021/11/27 03:32:37;;;;;;;16.90;12.30;;;;;;;1.10;81.89;97416.19;227861;1198;138980;-71
2021/11/27 03:37:41;;;;;;;16.00;11.00;;;;;;;1.08;81.91;97419.02;226950;1199;149289;-68
2021/11/27 03:42:44;;;;;;;18.00;10.90;;;;;;;1.10;82.00;97422.85;226245;1198;138611;-71
2021/11/27 03:48:07;;;;;;;20.90;13.00;;;;;;;1.14;82.15;97423.98;227810;1198;161828;-67
2021/11/27 03:53:47;;;;;;;;;;;;;;;;;;;;;
2021/11/27 03:58:50;;;;;;;18.50;13.10;;;;;;;1.12;82.17;97432.50;228912;1195;138852;-70
2021/11/27 04:03:55;;;;;;;25.80;10.90;;;;;;;1.11;82.40;97431.63;227485;1195;138401;-69
2021/11/27 04:09:13;;;;;;;24.90;14.80;;;;;;;1.13;82.15;97438.70;227273;1195;139382;-69
2021/11/27 04:14:39;;;;;;;24.30;16.00;;;;;;;1.14;82.10;97449.86;228442;1195;138832;-70
2021/11/27 04:20:00;;;;;;;24.40;14.40;;;;;;;1.12;82.12;97462.41;228757;1195;139266;-71
2021/11/27 04:25:04;;;;;;;25.20;13.60;;;;;;;1.11;82.32;97475.08;227561;1195;139164;-71
2021/11/27 04:30:11;;;;;;;28.30;16.60;;;;;;;1.16;82.07;97476.15;228564;1194;138650;-69
2021/11/27 04:35:15;;;;;;;24.70;15.60;;;;;;;1.17;81.89;97477.86;230130;1195;140702;-72
2021/11/27 04:40:19;;;;;;;23.70;16.00;;;;;;;1.13;82.18;97479.55;230056;1195;138748;-72
2021/11/27 04:45:23;;;;;;;25.40;13.40;;;;;;;1.13;82.10;97478.50;230188;1195;138634;-75
2021/11/27 04:50:31;;;;;;;21.10;12.90;;;;;;;1.15;81.80;97487.83;229306;1195;138695;-74
2021/11/27 04:55:37;;;;;;;24.50;13.90;;;;;;;1.16;81.98;97496.05;229002;1195;138843;-70
2021/11/27 05:00:55;;;;;;;25.00;12.20;;;;;;;1.16;82.43;97504.80;227895;1196;139011;-68
2021/11/27 05:06:00;;;;;;;24.20;14.30;;;;;;;1.14;82.22;97512.31;229319;1195;139337;-68
2021/11/27 05:11:26;;;;;;;26.70;14.60;;;;;;;1.11;81.88;97520.84;228698;1195;139716;-68
2021/11/27 05:16:30;;;;;;;29.60;16.10;;;;;;;1.11;82.28;97522.10;228114;1195;139316;-67
2021/11/27 05:21:33;;;;;;;30.20;15.90;;;;;;;1.07;82.20;97518.77;227343;1195;140248;-69
2021/11/27 05:26:39;;;;;;;27.20;12.60;;;;;;;1.06;82.49;97500.83;228490;1195;138557;-71
2021/11/27 05:31:44;;;;;;;23.30;14.80;;;;;;;1.10;82.57;97512.84;227461;1196;138712;-68
2021/11/27 05:36:47;;;;;;;25.40;16.00;;;;;;;1.09;82.26;97530.08;227849;1195;140780;-68
2021/11/27 06:03:14;;;;;;;24.10;13.20;;;;;;;0.66;83.35;97565.55;231541;1211;687744;-71
2021/11/27 06:08:17;;;;;;;24.50;12.70;;;;;;;0.65;83.37;97559.45;227493;1198;140491;-68
2021/11/27 06:13:24;;;;;;;27.00;16.40;;;;;;;0.71;83.29;97550.85;228333;1193;139082;-68
2021/11/27 06:18:27;;;;;;;25.50;14.50;;;;;;;0.78;83.24;97566.66;229204;1192;138089;-69
2021/11/27 06:23:33;;;;;;;27.80;13.60;;;;;;;0.83;83.41;97576.39;229271;1192;140236;-68
2021/11/27 06:28:37;;;;;;;24.40;13.60;;;;;;;0.91;83.14;97583.77;228746;1193;151233;-70
2021/11/27 10:41:00;;;;;;;36.10;18.50;;;;;;;2.54;82.27;97799.11;231626;1209;671141;-67
2021/11/27 10:46:06;;;;;;;44.50;20.40;;;;;;;2.78;81.52;97808.57;228465;1198;138541;-67
2021/11/27 10:51:21;;;;;;;45.30;20.20;;;;;;;2.75;81.67;97822.22;227684;1198;138703;-66
2021/11/27 10:57:05;;;;;;;28.40;14.90;;;;;;;2.70;81.78;97823.66;228561;1195;139912;-67
2021/11/27 11:02:15;;;;;;;42.70;17.20;;;;;;;2.67;81.34;97823.96;229283;1195;140297;-65
2021/11/27 11:07:28;;;;;;;31.70;17.90;;;;;;;2.66;81.13;97832.08;230374;1195;140357;-67
2021/11/27 11:12:45;;;;;;;32.80;17.60;;;;;;;2.66;81.44;97837.40;230614;1195;138637;-69
2021/11/27 11:18:17;;;;;;;29.50;14.60;;;;;;;2.73;81.36;97837.70;230085;1193;139198;-68
2021/11/27 11:23:24;;;;;;;32.10;16.70;;;;;;;2.83;80.75;97838.27;228936;1194;139689;-68
2021/11/27 11:28:39;;;;;;;31.50;16.20;;;;;;;2.95;80.83;97825.20;230644;1194;139141;-69
2021/11/27 11:33:50;;;;;;;34.00;16.30;;;;;;;2.94;80.66;97832.88;229444;1193;140134;-67
2021/11/27 11:39:02;;;;;;;38.10;18.30;;;;;;;2.87;80.45;97834.36;227928;1195;139405;-66
2021/11/27 11:44:24;;;;;;;34.50;16.80;;;;;;;2.80;80.41;97849.73;229659;1195;139436;-68
2021/11/27 11:49:29;;;;;;;41.30;18.50;;;;;;;2.81;80.14;97848.59;227691;1196;140177;-71
2021/11/27 11:54:35;;;;;;;40.20;18.60;;;;;;;2.71;80.44;97853.96;229271;1195;140918;-69
2021/11/27 11:59:40;;;;;;;39.20;17.80;;;;;;;2.68;80.41;97851.86;229067;1194;140398;-70
2021/11/27 12:05:12;;;;;;;36.30;19.40;;;;;;;2.70;80.29;97860.42;228464;1195;140299;-69
2021/11/27 12:10:46;;;;;;;40.00;20.30;;;;;;;2.67;80.54;97854.59;227872;1195;141742;-69
2021/11/27 12:16:06;;;;;;;29.70;16.80;;;;;;;2.68;80.62;97860.97;228050;1195;140757;-67
2021/11/27 12:21:14;;;;;;;33.10;14.60;;;;;;;2.66;80.28;97864.98;228308;1195;138697;-70
2021/11/27 12:26:23;;;;;;;28.60;16.10;;;;;;;2.65;79.98;97862.68;228536;1195;139992;-68
2021/11/27 12:32:20;;;;;;;;;;;;;;;;;;;;;
2021/11/27 12:37:26;;;;;;;32.50;18.40;;;;;;;2.61;80.39;97859.84;229391;1195;139192;-66
2021/11/27 12:42:36;;;;;;;38.20;19.50;;;;;;;2.59;80.49;97862.39;227842;1195;138378;-66
2021/11/27 12:47:43;;;;;;;31.80;16.40;;;;;;;2.58;80.43;97860.00;229963;1195;138920;-65
2021/11/27 12:52:51;;;;;;;28.00;14.60;;;;;;;2.61;80.14;97862.02;229761;1195;139048;-68
2021/11/27 12:57:59;;;;;;;35.90;17.50;;;;;;;2.66;80.15;97865.29;228779;1195;140751;-71
2021/11/27 13:03:09;;;;;;;35.30;16.10;;;;;;;2.67;80.06;97864.05;229335;1195;139904;-72
2021/11/27 13:08:26;;;;;;;32.70;18.00;;;;;;;2.64;80.20;97878.76;228023;1195;138050;-68
2021/11/27 13:13:39;;;;;;;30.70;16.30;;;;;;;2.61;80.16;97877.31;230436;1195;140918;-68
2021/11/27 13:18:50;;;;;;;32.60;19.70;;;;;;;2.61;79.95;97874.89;228886;1192;140733;-68
2021/11/27 13:23:57;;;;;;;36.80;18.30;;;;;;;2.59;79.98;97868.27;230750;1192;139635;-69
2021/11/27 13:29:02;;;;;;;30.40;18.60;;;;;;;2.56;80.10;97876.95;230895;1192;139190;-68
2021/11/27 13:34:09;;;;;;;32.70;17.20;;;;;;;2.52;79.91;97881.04;230210;1192;141374;-68
2021/11/27 13:39:25;;;;;;;33.40;18.30;;;;;;;2.51;79.83;97876.23;230639;1192;139429;-71
2021/11/27 13:44:46;;;;;;;39.30;22.80;;;;;;;2.45;79.98;97873.79;230495;1192;139587;-69
2021/11/27 13:50:07;;;;;;;38.50;19.80;;;;;;;2.39;80.00;97872.77;230819;1192;139335;-71
2021/11/27 13:55:17;;;;;;;40.40;18.10;;;;;;;2.34;80.11;97876.48;229055;1192;139667;-65
2021/11/27 14:00:52;;;;;;;36.50;17.40;;;;;;;2.26;80.14;97879.51;229298;1192;139701;-68
2021/11/27 14:06:07;;;;;;;34.80;17.40;;;;;;;2.24;80.05;97890.17;228934;1193;138992;-68
2021/11/27 14:11:14;;;;;;;27.40;17.40;;;;;;;2.15;79.93;97897.52;229163;1192;138839;-66
2021/11/27 14:16:21;;;;;;;30.00;17.20;;;;;;;2.03;80.29;97908.49;229803;1192;142547;-66
2021/11/27 14:21:38;;;;;;;28.60;15.30;;;;;;;1.96;80.16;97910.29;228731;1192;139795;-67
2021/11/27 14:27:04;;;;;;;30.20;15.80;;;;;;;1.88;80.16;97911.24;228471;1192;139819;-66
2021/11/27 14:32:56;;;;;;;;;;;;;;;;;;;;;
2021/11/27 14:39:01;;;;;;;32.10;16.40;;;;;;;1.73;80.52;97909.44;228774;1193;139833;-66
2021/11/27 14:44:28;;;;;;;34.50;18.30;;;;;;;1.66;80.35;97920.11;228996;1192;139079;-66
2021/11/27 14:50:04;;;;;;;35.20;17.80;;;;;;;1.56;80.47;97915.34;228379;1192;138572;-65
2021/11/27 14:55:11;;;;;;;41.80;20.00;;;;;;;1.55;80.37;97919.55;230017;1192;139107;-67
2021/11/27 15:00:24;;;;;;;44.00;23.00;;;;;;;1.51;80.60;97924.20;230031;1192;139917;-68
2021/11/27 15:05:37;;;;;;;45.60;25.00;;;;;;;1.49;80.51;97931.70;229388;1192;138426;-67
2021/11/27 15:10:42;;;;;;;45.60;24.90;;;;;;;1.44;80.72;97944.31;229941;1193;141483;-70
2021/11/27 15:15:57;;;;;;;52.60;24.90;;;;;;;1.39;80.71;97952.73;229054;1192;141409;-68
2021/11/27 15:21:01;;;;;;;44.00;23.80;;;;;;;1.39;80.59;97953.20;230829;1192;140660;-66
2021/11/27 15:26:16;;;;;;;44.40;23.50;;;;;;;1.36;80.30;97961.03;229131;1193;162248;-71
2021/11/27 15:31:23;;;;;;;44.60;22.70;;;;;;;1.27;80.75;97964.19;230546;1192;141131;-67
2021/11/27 15:36:29;;;;;;;34.90;18.10;;;;;;;1.24;80.75;97961.63;231002;1192;139754;-67
2021/11/27 15:41:35;;;;;;;38.20;22.40;;;;;;;1.26;80.89;97964.32;229536;1192;203663;-66
2021/11/27 15:47:00;;;;;;;;;;;;;;;;;;;;;
2021/11/27 15:52:16;;;;;;;34.80;19.20;;;;;;;1.24;81.17;97964.66;228966;1192;139269;-65
2021/11/27 15:57:21;;;;;;;138.80;58.90;;;;;;;1.24;81.16;97972.66;229722;1192;140349;-66
2021/11/27 16:02:37;;;;;;;530.50;225.60;;;;;;;1.22;81.13;97973.83;230110;1192;140992;-67
2021/11/27 16:07:42;;;;;;;47.40;31.70;;;;;;;1.26;81.36;97970.45;229144;1192;139780;-67
2021/11/27 16:12:50;;;;;;;34.80;20.40;;;;;;;1.31;81.13;97973.68;228189;1186;140902;-67
2021/11/27 16:17:55;;;;;;;41.40;23.30;;;;;;;1.26;81.27;97978.54;229571;1192;138886;-66
2021/11/27 16:23:00;;;;;;;33.50;24.10;;;;;;;1.24;81.29;97978.07;228100;1193;158022;-67
2021/11/27 16:28:05;;;;;;;37.00;19.70;;;;;;;1.21;81.03;97975.94;228464;1193;138261;-66
2021/11/27 16:33:54;;;;;;;43.10;20.90;;;;;;;1.23;81.29;97972.95;228982;1192;139523;-66
2021/11/27 16:38:58;;;;;;;46.20;23.70;;;;;;;1.20;81.19;97963.88;229348;1192;138995;-67
2021/11/27 16:44:08;;;;;;;44.40;24.30;;;;;;;1.15;81.37;97961.64;229409;1192;140486;-66
2021/11/27 16:49:12;;;;;;;43.20;20.20;;;;;;;1.13;81.57;97976.63;228965;1192;139138;-67
2021/11/27 16:54:20;;;;;;;48.00;22.30;;;;;;;1.13;81.28;97978.48;229543;1192;139309;-68
2021/11/27 16:59:54;;;;;;;44.30;22.20;;;;;;;1.16;81.37;97982.98;229451;1186;140418;-67
2021/11/27 17:04:58;;;;;;;43.40;22.50;;;;;;;1.16;81.33;97976.84;229340;1192;139825;-68
2021/11/27 17:10:04;;;;;;;44.70;26.10;;;;;;;1.16;81.59;97973.17;230037;1192;138506;-67
2021/11/27 17:15:22;;;;;;;37.10;16.40;;;;;;;1.16;81.47;97966.59;230040;1192;139506;-67
2021/11/27 17:20:37;;;;;;;;;;;;;;;1.16;81.56;97963.36;229669;1192;138335;-68
2021/11/27 17:25:41;;;;;;;48.50;22.50;;;;;;;1.17;81.44;97967.98;231458;1192;130412;-68
2021/11/27 17:30:46;;;;;;;47.00;25.20;;;;;;;1.19;81.58;97974.48;230781;1192;138991;-71
2021/11/27 17:35:52;;;;;;;47.60;25.20;;;;;;;1.21;81.58;97978.52;231094;1192;140257;-70
2021/11/27 17:41:12;;;;;;;42.40;23.50;;;;;;;1.21;81.58;97976.88;230647;1184;139685;-68
2021/11/27 17:46:18;;;;;;;46.10;22.40;;;;;;;1.17;81.45;97985.96;231053;1192;138818;-70
2021/11/27 17:51:28;;;;;;;49.80;26.10;;;;;;;1.18;81.45;97991.55;230803;1192;139816;-67
2021/11/27 17:57:07;;;;;;;52.10;27.10;;;;;;;1.15;81.34;97995.55;229757;1192;139306;-68
2021/11/27 18:02:15;;;;;;;52.90;26.40;;;;;;;1.06;81.04;97996.55;228861;1192;140601;-67
2021/11/27 18:07:42;;;;;;;41.30;23.30;;;;;;;0.98;81.86;97992.61;230347;1192;139141;-68
2021/11/27 18:13:08;;;;;;;46.60;24.40;;;;;;;0.95;81.80;97994.98;229541;1192;138520;-70
2021/11/27 18:18:14;;;;;;;;;;;;;;;1.02;81.96;97994.52;229883;1192;139375;-71
2021/11/27 18:24:05;;;;;;;50.80;26.30;;;;;;;1.04;81.92;98000.16;230187;1192;124852;-69
2021/11/27 18:29:15;;;;;;;49.10;26.10;;;;;;;0.97;81.87;98002.91;229077;1192;138957;-68
2021/11/27 18:34:22;;;;;;;55.00;29.50;;;;;;;0.89;82.24;98006.64;229320;1192;139565;-66
2021/11/27 18:39:28;;;;;;;53.70;26.50;;;;;;;0.86;82.20;98009.92;228310;1192;138767;-65
2021/11/27 18:44:38;;;;;;;49.40;26.20;;;;;;;0.89;82.17;98008.66;228533;1192;139603;-67
2021/11/27 18:50:06;;;;;;;47.20;28.80;;;;;;;0.92;81.96;98011.52;229690;1192;139709;-67
2021/11/27 18:55:24;;;;;;;45.20;25.70;;;;;;;0.91;82.23;98010.61;228608;1192;139222;-69
2021/11/27 19:00:54;;;;;;;39.90;24.40;;;;;;;0.95;82.54;98015.77;228699;1192;221319;-66
2021/11/27 19:06:02;;;;;;;45.10;24.30;;;;;;;1.00;82.30;98026.15;229572;1192;139535;-65
2021/11/27 19:11:12;;;;;;;45.40;24.40;;;;;;;1.06;82.24;98040.06;229473;1192;139248;-65
2021/11/27 19:16:31;;;;;;;45.30;25.70;;;;;;;1.09;82.33;98044.16;229613;1192;140751;-66
2021/11/27 19:21:36;;;;;;;43.30;25.80;;;;;;;1.13;82.49;98044.54;230145;1192;140205;-67
2021/11/27 19:26:42;;;;;;;46.90;24.30;;;;;;;1.17;82.82;98049.35;229566;1192;139849;-67
2021/11/27 19:31:48;;;;;;;43.30;25.10;;;;;;;1.26;82.67;98052.45;229613;1192;142218;-67
2021/11/27 19:36:53;;;;;;;52.70;27.20;;;;;;;1.34;82.75;98048.48;230455;1192;140921;-71
2021/11/27 19:41:57;;;;;;;51.90;30.70;;;;;;;1.39;82.66;98051.23;229359;1192;141771;-68
2021/11/27 19:47:01;;;;;;;43.50;23.10;;;;;;;1.41;82.54;98054.16;230734;1192;139290;-71
2021/11/27 19:52:08;;;;;;;47.90;28.50;;;;;;;1.47;82.52;98064.49;230890;1192;140917;-67
2021/11/27 19:57:36;;;;;;;43.00;26.70;;;;;;;1.51;82.46;98066.15;230083;1192;138864;-67
2021/11/27 20:02:40;;;;;;;55.50;31.20;;;;;;;1.50;82.43;98068.99;230336;1192;140680;-67
2021/11/27 20:07:50;;;;;;;250.10;83.90;;;;;;;1.50;82.48;98075.34;228724;1192;139475;-68
2021/11/27 20:13:05;;;;;;;208.10;71.20;;;;;;;1.54;82.40;98082.70;230063;1191;144500;-67
2021/11/27 20:18:14;;;;;;;62.10;37.10;;;;;;;1.56;82.36;98087.34;229528;1192;140690;-68
2021/11/27 20:23:22;;;;;;;50.90;27.10;;;;;;;1.55;82.39;98081.69;229697;1192;138639;-68
2021/11/27 20:28:27;;;;;;;43.50;25.00;;;;;;;1.51;82.23;98081.77;229834;1192;139601;-66
2021/11/27 20:33:53;;;;;;;41.90;25.50;;;;;;;1.50;81.95;98079.09;228892;1192;140610;-67
2021/11/27 20:39:07;;;;;;;44.80;23.70;;;;;;;1.43;82.24;98073.17;229123;1192;138820;-66
2021/11/27 20:44:12;;;;;;;50.30;26.90;;;;;;;1.34;82.17;98066.71;229266;1192;139052;-70
2021/11/27 20:49:20;;;;;;;43.40;23.30;;;;;;;1.26;82.21;98063.45;228732;1193;140508;-68
2021/11/27 20:54:25;;;;;;;53.60;26.70;;;;;;;1.24;82.17;98055.36;228551;1193;139075;-68
2021/11/27 20:59:29;;;;;;;54.00;29.40;;;;;;;1.21;82.37;98055.13;229002;1193;140945;-66
2021/11/27 21:04:34;;;;;;;50.40;30.40;;;;;;;1.20;82.61;98056.70;228986;1192;139761;-66
2021/11/27 21:09:39;;;;;;;52.50;28.20;;;;;;;1.22;82.76;98050.91;228693;1192;139417;-67
2021/11/27 21:14:45;;;;;;;52.50;29.20;;;;;;;1.27;82.50;98054.69;229049;1192;141614;-67
2021/11/27 21:19:49;;;;;;;55.60;28.00;;;;;;;1.33;82.73;98062.23;229644;1192;138677;-69
2021/11/27 21:25:06;;;;;;;54.70;27.30;;;;;;;1.36;82.69;98056.43;229391;1192;138943;-68
2021/11/27 21:30:12;;;;;;;52.70;27.00;;;;;;;1.31;82.79;98064.23;229633;1193;139600;-69
2021/11/27 21:35:41;;;;;;;53.70;24.00;;;;;;;1.29;82.65;98047.20;230653;1192;139820;-68
2021/11/27 21:40:56;;;;;;;58.30;29.50;;;;;;;1.29;82.33;98029.42;230696;1192;139955;-70
2021/11/27 21:46:01;;;;;;;54.10;24.50;;;;;;;1.29;82.19;98032.70;230838;1192;140383;-67
2021/11/27 21:51:38;;;;;;;53.60;28.60;;;;;;;1.24;82.31;98022.53;229920;1192;139502;-67
2021/11/27 21:56:43;;;;;;;44.40;22.70;;;;;;;1.20;82.32;98013.02;230762;1192;138759;-66
2021/11/27 22:01:54;;;;;;;50.90;25.70;;;;;;;1.18;82.19;98012.75;230201;1192;140259;-66
2021/11/27 22:07:03;;;;;;;49.60;25.80;;;;;;;1.18;82.33;97997.05;230233;1192;139752;-65
2021/11/27 22:12:13;;;;;;;47.10;27.20;;;;;;;1.15;82.09;97982.54;229529;1192;140442;-66
2021/11/27 22:17:18;;;;;;;50.20;27.90;;;;;;;1.12;82.41;97997.23;229342;1192;141555;-66
2021/11/27 22:22:24;;;;;;;53.30;24.90;;;;;;;1.07;82.44;97993.20;229792;1192;139736;-65
2021/11/27 22:27:28;;;;;;;78.80;32.10;;;;;;;1.06;82.78;98008.86;229044;1192;139639;-68
2021/11/27 22:32:33;;;;;;;75.00;33.30;;;;;;;1.14;83.07;98018.33;228999;1192;142101;-66
2021/11/27 22:37:38;;;;;;;143.10;58.80;;;;;;;1.18;82.93;98025.35;229434;1192;142050;-67
2021/11/27 22:42:43;;;;;;;79.60;35.40;;;;;;;1.19;82.96;98031.84;229054;1192;140919;-67
2021/11/27 22:47:48;;;;;;;49.60;22.90;;;;;;;1.17;82.89;98032.71;229384;1192;144898;-68
2021/11/27 22:52:52;;;;;;;49.30;28.00;;;;;;;1.14;82.58;98044.52;230033;1192;140156;-67
2021/11/27 22:57:57;;;;;;;44.40;26.60;;;;;;;1.15;83.18;98054.29;229603;1192;139621;-66
2021/11/27 23:03:05;;;;;;;38.80;23.60;;;;;;;1.16;83.13;98053.92;229599;1192;139097;-66
2021/11/27 23:08:09;;;;;;;29.60;16.10;;;;;;;1.13;83.17;98052.85;230360;1184;138581;-68
2021/11/27 23:13:17;;;;;;;37.50;20.60;;;;;;;1.18;83.21;98054.39;230308;1192;139746;-66
2021/11/27 23:18:40;;;;;;;34.10;19.20;;;;;;;1.21;82.94;98054.31;230460;1192;139879;-67
2021/11/27 23:23:58;;;;;;;26.20;16.20;;;;;;;1.24;83.26;98060.45;230372;1192;139808;-66
2021/11/27 23:29:24;;;;;;;34.40;14.30;;;;;;;1.20;83.21;98053.33;230392;1192;139763;-65
2021/11/27 23:34:35;;;;;;;31.50;15.90;;;;;;;1.23;82.57;98051.20;229298;1192;140536;-66
2021/11/27 23:39:48;;;;;;;31.40;14.80;;;;;;;1.25;83.00;98053.00;229454;1192;140845;-66
2021/11/27 23:45:05;;;;;;;27.40;12.50;;;;;;;1.26;83.09;98054.62;231154;1193;139702;-69
2021/11/27 23:50:35;;;;;;;;;;;;;;;;;;;;;
2021/11/27 23:55:41;;;;;;;29.00;16.80;;;;;;;1.27;82.77;98061.55;229934;1192;140620;-67
